createdAt,value
2022-11-09T00:00:12.986Z,12.60
2022-11-09T00:01:14.413Z,12.60
2022-11-09T00:02:15.828Z,12.60
2022-11-09T00:03:17.949Z,12.60
2022-11-09T00:04:19.613Z,12.70
2022-11-09T00:05:21.309Z,12.70
2022-11-09T00:06:23.567Z,12.70
2022-11-09T00:07:24.946Z,12.70
2022-11-09T00:08:26.887Z,12.70
2022-11-09T00:09:28.340Z,12.70
2022-11-09T00:10:29.794Z,12.80
2022-11-09T00:11:31.267Z,12.80
2022-11-09T00:12:32.856Z,12.80
2022-11-09T00:13:42.152Z,12.80
2022-11-09T00:14:43.539Z,12.90
2022-11-09T00:15:45.205Z,12.80
2022-11-09T00:16:46.817Z,12.80
2022-11-09T00:17:48.528Z,12.80
2022-11-09T00:18:50.762Z,12.80
2022-11-09T00:19:52.229Z,12.90
2022-11-09T00:20:53.854Z,12.90
2022-11-09T00:21:55.433Z,12.90
2022-11-09T00:22:57.210Z,12.90
2022-11-09T00:23:58.657Z,12.90
2022-11-09T00:25:00.166Z,12.90
2022-11-09T00:26:06.848Z,12.90
2022-11-09T00:27:08.256Z,13.00
2022-11-09T00:28:09.618Z,13.10
2022-11-09T00:29:11.066Z,13.00
2022-11-09T00:30:12.915Z,13.10
2022-11-09T00:31:20.378Z,13.10
2022-11-09T00:32:27.491Z,13.10
2022-11-09T00:33:30.120Z,13.10
2022-11-09T00:34:31.568Z,13.10
2022-11-09T00:35:33.349Z,13.10
2022-11-09T00:36:37.326Z,13.10
2022-11-09T00:37:41.668Z,13.10
2022-11-09T00:38:51.894Z,13.10
2022-11-09T00:39:53.268Z,13.10
2022-11-09T00:40:59.843Z,13.10
2022-11-09T00:42:01.240Z,13.10
2022-11-09T00:43:04.535Z,13.20
2022-11-09T00:44:06.350Z,13.20
2022-11-09T00:45:08.283Z,13.20
2022-11-09T00:46:10.012Z,13.20
2022-11-09T00:47:12.005Z,13.10
2022-11-09T00:48:13.617Z,13.20
2022-11-09T00:49:16.613Z,13.20
2022-11-09T00:50:18.101Z,13.20
2022-11-09T00:51:19.925Z,13.20
2022-11-09T00:52:21.516Z,13.30
2022-11-09T00:53:23.720Z,13.30
2022-11-09T00:54:25.449Z,13.30
2022-11-09T00:55:27.397Z,13.30
2022-11-09T00:56:29.638Z,13.30
2022-11-09T00:57:31.045Z,13.30
2022-11-09T00:58:35.486Z,13.20
2022-11-09T00:59:36.872Z,13.20
2022-11-09T01:00:38.500Z,13.10
2022-11-09T01:01:40.249Z,13.10
2022-11-09T01:02:41.745Z,13.10
2022-11-09T01:03:44.673Z,13.00
2022-11-09T01:04:46.048Z,13.00
2022-11-09T01:05:47.961Z,13.00
2022-11-09T01:06:52.397Z,13.00
2022-11-09T01:07:53.787Z,12.90
2022-11-09T01:08:58.041Z,12.90
2022-11-09T01:09:59.712Z,12.90
2022-11-09T01:11:06.445Z,12.90
2022-11-09T01:12:07.955Z,13.00
2022-11-09T01:13:10.661Z,13.00
2022-11-09T01:14:12.251Z,12.90
2022-11-09T01:15:13.722Z,12.90
2022-11-09T01:16:18.273Z,12.90
2022-11-09T01:17:19.740Z,13.00
2022-11-09T01:18:22.238Z,13.00
2022-11-09T01:19:23.639Z,13.00
2022-11-09T01:20:27.160Z,13.00
2022-11-09T01:21:28.933Z,13.00
2022-11-09T01:22:30.403Z,13.00
2022-11-09T01:23:32.700Z,13.00
2022-11-09T01:24:34.073Z,13.00
2022-11-09T01:25:36.540Z,13.00
2022-11-09T01:26:37.936Z,13.00
2022-11-09T01:27:39.356Z,13.00
2022-11-09T01:28:41.684Z,13.10
2022-11-09T01:29:43.129Z,13.10
2022-11-09T01:30:44.817Z,13.10
2022-11-09T01:31:46.777Z,13.00
2022-11-09T01:32:48.134Z,13.00
2022-11-09T01:33:49.924Z,13.00
2022-11-09T01:34:51.688Z,13.10
2022-11-09T01:35:53.079Z,13.00
2022-11-09T01:36:54.476Z,13.10
2022-11-09T01:37:56.793Z,13.10
2022-11-09T01:38:58.555Z,13.10
2022-11-09T01:40:00.087Z,13.10
2022-11-09T01:41:01.515Z,13.00
2022-11-09T01:42:03.213Z,13.00
2022-11-09T01:43:24.786Z,13.00
2022-11-09T01:44:27.907Z,13.00
2022-11-09T01:45:31.282Z,13.10
2022-11-09T01:47:05.858Z,13.10
2022-11-09T01:48:18.704Z,13.00
2022-11-09T01:49:38.133Z,13.00
2022-11-09T01:50:39.673Z,13.00
2022-11-09T01:52:00.672Z,13.00
2022-11-09T01:53:09.731Z,13.10
2022-11-09T01:54:26.061Z,13.10
2022-11-09T01:55:31.047Z,13.10
2022-11-09T01:56:33.463Z,13.00
2022-11-09T01:57:39.036Z,13.00
2022-11-09T01:58:53.072Z,13.10
2022-11-09T02:00:00.906Z,13.10
2022-11-09T02:01:04.026Z,13.00
2022-11-09T02:02:05.883Z,13.10
2022-11-09T02:03:26.477Z,13.00
2022-11-09T02:04:41.368Z,13.10
2022-11-09T02:05:46.577Z,13.10
2022-11-09T02:06:50.173Z,13.10
2022-11-09T02:07:55.463Z,13.10
2022-11-09T02:09:04.571Z,13.00
2022-11-09T02:10:10.151Z,13.00
2022-11-09T02:11:14.367Z,13.00
2022-11-09T02:12:18.473Z,13.00
2022-11-09T02:13:24.145Z,13.00
2022-11-09T02:14:27.917Z,13.00
2022-11-09T02:15:30.240Z,13.00
2022-11-09T02:16:32.481Z,13.00
2022-11-09T02:17:35.067Z,13.00
2022-11-09T02:18:42.727Z,13.00
2022-11-09T02:19:44.170Z,13.10
2022-11-09T02:20:53.914Z,13.00
2022-11-09T02:21:57.549Z,13.00
2022-11-09T02:22:59.584Z,13.00
2022-11-09T02:24:02.114Z,13.10
2022-11-09T02:25:04.900Z,13.10
2022-11-09T02:26:13.529Z,13.10
2022-11-09T02:27:15.091Z,13.00
2022-11-09T02:28:17.462Z,13.10
2022-11-09T02:29:24.155Z,13.10
2022-11-09T02:30:26.244Z,13.00
2022-11-09T02:31:34.164Z,13.00
2022-11-09T02:32:36.447Z,13.10
2022-11-09T02:33:52.505Z,13.10
2022-11-09T02:34:54.612Z,13.10
2022-11-09T02:35:56.339Z,13.10
2022-11-09T02:36:58.463Z,13.10
2022-11-09T02:38:00.235Z,13.10
2022-11-09T02:39:03.279Z,13.00
2022-11-09T02:40:14.680Z,13.00
2022-11-09T02:41:17.492Z,13.00
2022-11-09T02:42:21.664Z,13.00
2022-11-09T02:43:25.335Z,13.00
2022-11-09T02:44:32.800Z,13.00
2022-11-09T02:45:34.763Z,13.00
2022-11-09T02:46:37.163Z,12.90
2022-11-09T02:47:38.857Z,12.90
2022-11-09T02:48:41.284Z,13.00
2022-11-09T02:49:42.857Z,13.00
2022-11-09T02:50:44.255Z,12.90
2022-11-09T02:51:45.666Z,12.90
2022-11-09T02:52:47.488Z,12.90
2022-11-09T02:53:48.928Z,13.00
2022-11-09T02:54:50.507Z,12.90
2022-11-09T02:55:51.989Z,13.00
2022-11-09T02:56:53.804Z,13.00
2022-11-09T02:57:55.763Z,13.00
2022-11-09T02:58:58.256Z,13.00
2022-11-09T02:59:59.759Z,13.10
2022-11-09T03:01:01.445Z,13.10
2022-11-09T03:02:02.884Z,13.10
2022-11-09T03:03:06.571Z,13.10
2022-11-09T03:04:07.965Z,13.10
2022-11-09T03:05:10.958Z,13.10
2022-11-09T03:06:15.348Z,13.10
2022-11-09T03:07:19.385Z,13.10
2022-11-09T03:08:21.316Z,13.00
2022-11-09T03:09:23.515Z,13.10
2022-11-09T03:10:25.308Z,13.10
2022-11-09T03:11:27.033Z,13.10
2022-11-09T03:12:31.214Z,13.00
2022-11-09T03:13:38.917Z,13.00
2022-11-09T03:14:42.760Z,13.00
2022-11-09T03:15:44.724Z,13.00
2022-11-09T03:16:50.213Z,13.10
2022-11-09T03:17:52.185Z,13.00
2022-11-09T03:18:55.250Z,13.10
2022-11-09T03:19:56.943Z,13.10
2022-11-09T03:21:05.677Z,13.10
2022-11-09T03:22:07.538Z,13.10
2022-11-09T03:23:10.967Z,13.10
2022-11-09T03:24:13.962Z,13.10
2022-11-09T03:25:16.603Z,13.10
2022-11-09T03:26:18.458Z,13.10
2022-11-09T03:27:19.900Z,13.10
2022-11-09T03:28:23.379Z,13.10
2022-11-09T03:29:26.645Z,13.10
2022-11-09T03:30:30.145Z,13.10
2022-11-09T03:31:32.785Z,13.10
2022-11-09T03:32:38.145Z,13.10
2022-11-09T03:33:41.285Z,13.10
2022-11-09T03:34:43.803Z,13.20
2022-11-09T03:35:47.764Z,13.10
2022-11-09T03:36:52.444Z,13.10
2022-11-09T03:37:55.635Z,13.10
2022-11-09T03:38:58.625Z,13.10
2022-11-09T03:40:00.095Z,13.10
2022-11-09T03:41:02.229Z,13.10
2022-11-09T03:42:04.255Z,13.10
2022-11-09T03:43:06.562Z,13.20
2022-11-09T03:44:11.086Z,13.10
2022-11-09T03:45:15.500Z,13.20
2022-11-09T03:46:16.938Z,13.10
2022-11-09T03:47:18.411Z,13.10
2022-11-09T03:48:20.201Z,13.20
2022-11-09T03:49:23.826Z,13.20
2022-11-09T03:50:25.795Z,13.20
2022-11-09T03:51:27.286Z,13.20
2022-11-09T03:52:28.669Z,13.20
2022-11-09T03:53:30.097Z,13.20
2022-11-09T03:54:31.516Z,13.30
2022-11-09T03:55:33.671Z,13.20
2022-11-09T03:56:35.153Z,13.20
2022-11-09T03:57:36.696Z,13.30
2022-11-09T03:58:38.110Z,13.30
2022-11-09T03:59:39.505Z,13.30
2022-11-09T04:00:41.167Z,13.30
2022-11-09T04:01:42.658Z,13.20
2022-11-09T04:02:44.422Z,13.30
2022-11-09T04:03:46.562Z,13.30
2022-11-09T04:04:48.475Z,13.30
2022-11-09T04:05:49.867Z,13.20
2022-11-09T04:06:51.479Z,13.20
2022-11-09T04:07:55.494Z,13.30
2022-11-09T04:08:56.981Z,13.20
2022-11-09T04:09:58.594Z,13.20
2022-11-09T04:11:00.277Z,13.20
2022-11-09T04:12:01.960Z,13.20
2022-11-09T04:13:03.685Z,13.20
2022-11-09T04:14:05.279Z,13.20
2022-11-09T04:15:07.013Z,13.20
2022-11-09T04:16:09.143Z,13.20
2022-11-09T04:17:10.578Z,13.20
2022-11-09T04:18:14.948Z,13.20
2022-11-09T04:19:16.367Z,13.10
2022-11-09T04:20:17.769Z,13.20
2022-11-09T04:21:22.880Z,13.20
2022-11-09T04:22:25.468Z,13.20
2022-11-09T04:23:26.872Z,13.20
2022-11-09T04:24:28.524Z,13.20
2022-11-09T04:25:33.416Z,13.20
2022-11-09T04:26:35.007Z,13.10
2022-11-09T04:27:36.440Z,13.10
2022-11-09T04:28:38.392Z,13.10
2022-11-09T04:29:39.992Z,13.20
2022-11-09T04:30:43.208Z,13.20
2022-11-09T04:31:44.724Z,13.20
2022-11-09T04:32:46.138Z,13.20
2022-11-09T04:33:51.327Z,13.20
2022-11-09T04:34:52.831Z,13.20
2022-11-09T04:35:54.351Z,13.10
2022-11-09T04:36:55.740Z,13.20
2022-11-09T04:38:02.614Z,13.20
2022-11-09T04:39:04.925Z,13.10
2022-11-09T04:40:06.848Z,13.10
2022-11-09T04:41:08.422Z,13.10
2022-11-09T04:42:09.857Z,13.10
2022-11-09T04:43:13.584Z,13.10
2022-11-09T04:44:16.474Z,13.10
2022-11-09T04:45:19.340Z,13.00
2022-11-09T04:46:20.833Z,13.00
2022-11-09T04:47:22.552Z,13.00
2022-11-09T04:48:23.958Z,13.10
2022-11-09T04:49:25.594Z,13.00
2022-11-09T04:50:28.240Z,13.00
2022-11-09T04:51:29.710Z,13.00
2022-11-09T04:52:31.493Z,13.00
2022-11-09T04:53:33.951Z,13.00
2022-11-09T04:54:35.559Z,13.10
2022-11-09T04:55:37.885Z,13.00
2022-11-09T04:56:39.537Z,13.00
2022-11-09T04:57:40.918Z,13.00
2022-11-09T04:58:42.426Z,13.00
2022-11-09T04:59:43.810Z,13.00
2022-11-09T05:00:45.204Z,13.00
2022-11-09T05:01:46.709Z,13.00
2022-11-09T05:02:48.075Z,13.00
2022-11-09T05:03:49.848Z,13.00
2022-11-09T05:04:51.294Z,13.10
2022-11-09T05:05:52.901Z,13.00
2022-11-09T05:06:54.295Z,13.00
2022-11-09T05:07:56.440Z,13.00
2022-11-09T05:08:59.585Z,13.00
2022-11-09T05:10:00.968Z,13.00
2022-11-09T05:11:02.348Z,12.90
2022-11-09T05:12:03.980Z,12.90
2022-11-09T05:13:08.261Z,12.90
2022-11-09T05:14:09.932Z,12.90
2022-11-09T05:15:11.445Z,12.90
2022-11-09T05:16:13.150Z,12.90
2022-11-09T05:17:14.600Z,12.90
2022-11-09T05:18:16.037Z,13.00
2022-11-09T05:19:17.850Z,13.00
2022-11-09T05:20:19.599Z,13.00
2022-11-09T05:21:21.419Z,13.10
2022-11-09T05:22:41.646Z,13.00
2022-11-09T05:24:02.799Z,13.00
2022-11-09T05:25:04.690Z,13.00
2022-11-09T05:26:06.409Z,12.90
2022-11-09T05:27:08.010Z,13.00
2022-11-09T05:28:09.911Z,13.00
2022-11-09T05:29:13.261Z,13.00
2022-11-09T05:30:15.209Z,12.90
2022-11-09T05:31:16.587Z,13.00
2022-11-09T05:32:17.963Z,12.90
2022-11-09T05:33:19.683Z,13.00
2022-11-09T05:34:21.542Z,13.00
2022-11-09T05:35:23.338Z,13.00
2022-11-09T05:36:25.268Z,13.00
2022-11-09T05:37:26.665Z,12.90
2022-11-09T05:38:28.133Z,13.00
2022-11-09T05:39:29.631Z,13.00
2022-11-09T05:40:32.170Z,13.00
2022-11-09T05:41:33.644Z,13.10
2022-11-09T05:42:38.597Z,13.10
2022-11-09T05:43:40.560Z,13.10
2022-11-09T05:44:41.982Z,13.10
2022-11-09T05:45:44.308Z,13.10
2022-11-09T05:46:46.815Z,13.10
2022-11-09T05:47:48.327Z,13.10
2022-11-09T05:48:50.100Z,13.10
2022-11-09T05:49:51.477Z,13.10
2022-11-09T05:50:53.173Z,13.10
2022-11-09T05:52:00.502Z,13.10
2022-11-09T05:53:02.503Z,13.20
2022-11-09T05:54:04.067Z,13.10
2022-11-09T05:55:06.309Z,13.10
2022-11-09T05:56:11.105Z,13.10
2022-11-09T05:57:12.912Z,13.10
2022-11-09T05:58:14.353Z,13.10
2022-11-09T05:59:15.808Z,13.10
2022-11-09T06:00:17.462Z,13.10
2022-11-09T06:01:19.389Z,13.10
2022-11-09T06:02:21.388Z,13.10
2022-11-09T06:03:23.403Z,13.10
2022-11-09T06:04:24.938Z,13.00
2022-11-09T06:05:26.444Z,13.00
2022-11-09T06:06:28.331Z,13.00
2022-11-09T06:07:29.809Z,13.00
2022-11-09T06:08:31.597Z,13.10
2022-11-09T06:09:32.964Z,13.10
2022-11-09T06:10:35.269Z,13.10
2022-11-09T06:11:36.759Z,13.10
2022-11-09T06:12:38.345Z,13.10
2022-11-09T06:13:39.840Z,13.10
2022-11-09T06:14:41.554Z,13.10
2022-11-09T06:15:43.169Z,13.10
2022-11-09T06:16:44.606Z,13.10
2022-11-09T06:17:54.720Z,13.10
2022-11-09T06:18:56.306Z,13.10
2022-11-09T06:19:57.946Z,13.20
2022-11-09T06:21:01.373Z,13.20
2022-11-09T06:22:02.821Z,13.20
2022-11-09T06:23:04.632Z,13.20
2022-11-09T06:24:06.460Z,13.30
2022-11-09T06:25:08.218Z,13.20
2022-11-09T06:26:11.879Z,13.20
2022-11-09T06:27:13.345Z,13.10
2022-11-09T06:28:14.951Z,13.20
2022-11-09T06:29:16.653Z,13.10
2022-11-09T06:30:18.278Z,13.10
2022-11-09T06:31:20.656Z,13.10
2022-11-09T06:32:22.039Z,13.10
2022-11-09T06:33:23.744Z,13.20
2022-11-09T06:34:25.544Z,13.20
2022-11-09T06:35:27.123Z,13.20
2022-11-09T06:36:28.782Z,13.20
2022-11-09T06:37:30.581Z,13.30
2022-11-09T06:38:32.144Z,13.20
2022-11-09T06:39:33.616Z,13.20
2022-11-09T06:40:35.294Z,13.20
2022-11-09T06:41:36.962Z,13.20
2022-11-09T06:42:38.416Z,13.20
2022-11-09T06:43:39.945Z,13.20
2022-11-09T06:44:42.019Z,13.30
2022-11-09T06:45:43.392Z,13.30
2022-11-09T06:46:44.846Z,13.30
2022-11-09T06:47:46.306Z,13.30
2022-11-09T06:48:53.334Z,13.30
2022-11-09T06:49:55.921Z,13.30
2022-11-09T06:51:02.264Z,13.20
2022-11-09T06:52:03.974Z,13.20
2022-11-09T06:53:07.235Z,13.30
2022-11-09T06:54:08.734Z,13.30
2022-11-09T06:55:10.196Z,13.40
2022-11-09T06:56:11.690Z,13.40
2022-11-09T06:57:13.285Z,13.40
2022-11-09T06:58:16.081Z,13.40
2022-11-09T06:59:17.491Z,13.40
2022-11-09T07:00:19.583Z,13.50
2022-11-09T07:01:25.589Z,13.50
2022-11-09T07:02:27.079Z,13.50
2022-11-09T07:03:28.464Z,13.50
2022-11-09T07:04:30.049Z,13.50
2022-11-09T07:05:31.496Z,13.50
2022-11-09T07:06:33.363Z,13.50
2022-11-09T07:07:34.986Z,13.50
2022-11-09T07:08:36.972Z,13.50
2022-11-09T07:09:38.373Z,13.50
2022-11-09T07:10:40.269Z,13.50
2022-11-09T07:11:41.827Z,13.50
2022-11-09T07:12:43.411Z,13.50
2022-11-09T07:13:45.052Z,13.50
2022-11-09T07:14:46.500Z,13.60
2022-11-09T07:15:54.537Z,13.50
2022-11-09T07:16:55.962Z,13.60
2022-11-09T07:18:01.450Z,13.50
2022-11-09T07:19:03.185Z,13.60
2022-11-09T07:20:05.585Z,13.60
2022-11-09T07:21:12.849Z,13.60
2022-11-09T07:22:15.713Z,13.60
2022-11-09T07:23:17.340Z,13.60
2022-11-09T07:24:18.972Z,13.60
2022-11-09T07:25:21.026Z,13.60
2022-11-09T07:26:22.575Z,13.50
2022-11-09T07:27:27.772Z,13.50
2022-11-09T07:28:29.795Z,13.50
2022-11-09T07:29:31.276Z,13.50
2022-11-09T07:30:33.003Z,13.50
2022-11-09T07:31:34.386Z,13.50
2022-11-09T07:34:01.198Z,13.50
2022-11-09T07:35:04.258Z,13.60
2022-11-09T07:36:06.643Z,13.60
2022-11-09T07:37:08.161Z,13.70
2022-11-09T07:38:10.011Z,13.70
2022-11-09T07:39:11.855Z,13.70
2022-11-09T07:40:13.648Z,13.70
2022-11-09T07:41:15.067Z,13.80
2022-11-09T07:42:16.590Z,13.70
2022-11-09T07:43:18.691Z,13.70
2022-11-09T07:44:24.487Z,13.80
2022-11-09T07:45:26.297Z,13.80
2022-11-09T07:46:28.069Z,13.80
2022-11-09T07:47:29.534Z,13.90
2022-11-09T07:48:31.844Z,13.90
2022-11-09T07:49:33.244Z,13.90
2022-11-09T07:50:35.501Z,13.80
2022-11-09T07:51:36.894Z,13.90
2022-11-09T07:52:38.265Z,14.00
2022-11-09T07:53:40.141Z,14.00
2022-11-09T07:54:41.587Z,14.10
2022-11-09T07:55:44.323Z,14.10
2022-11-09T07:56:45.799Z,14.10
2022-11-09T07:57:47.261Z,14.20
2022-11-09T07:58:50.467Z,14.20
2022-11-09T07:59:53.517Z,14.20
2022-11-09T08:00:55.239Z,14.20
2022-11-09T08:01:57.244Z,14.20
2022-11-09T08:02:58.735Z,14.30
2022-11-09T08:04:00.241Z,14.30
2022-11-09T08:05:01.626Z,14.30
2022-11-09T08:06:03.374Z,14.40
2022-11-09T08:07:04.843Z,14.40
2022-11-09T08:08:08.993Z,14.40
2022-11-09T08:09:10.408Z,14.40
2022-11-09T08:10:12.139Z,14.50
2022-11-09T08:11:13.608Z,14.50
2022-11-09T08:12:15.083Z,14.60
2022-11-09T08:13:16.491Z,14.70
2022-11-09T08:14:17.999Z,14.70
2022-11-09T08:15:19.560Z,14.70
2022-11-09T08:16:21.095Z,14.80
2022-11-09T08:17:22.670Z,14.80
2022-11-09T08:18:24.917Z,14.80
2022-11-09T08:19:26.293Z,14.90
2022-11-09T08:20:28.410Z,14.90
2022-11-09T08:21:29.929Z,15.00
2022-11-09T08:22:31.301Z,15.00
2022-11-09T08:23:33.437Z,15.10
2022-11-09T08:24:34.835Z,15.10
2022-11-09T08:25:36.422Z,15.20
2022-11-09T08:26:38.150Z,15.10
2022-11-09T08:27:40.466Z,15.20
2022-11-09T08:28:41.892Z,15.20
2022-11-09T08:29:43.571Z,15.20
2022-11-09T08:30:45.703Z,15.20
2022-11-09T08:31:50.352Z,15.20
2022-11-09T08:32:52.213Z,15.30
2022-11-09T08:33:53.630Z,15.40
2022-11-09T08:34:55.100Z,15.40
2022-11-09T08:35:56.859Z,15.50
2022-11-09T08:37:02.205Z,15.50
2022-11-09T08:38:05.588Z,15.50
2022-11-09T08:39:07.220Z,15.50
2022-11-09T08:40:09.308Z,15.60
2022-11-09T08:41:13.629Z,15.60
2022-11-09T08:42:15.721Z,15.60
2022-11-09T08:43:17.190Z,15.70
2022-11-09T08:44:19.046Z,15.70
2022-11-09T08:45:20.888Z,15.80
2022-11-09T08:46:22.264Z,15.80
2022-11-09T08:47:23.865Z,15.90
2022-11-09T08:48:26.097Z,15.90
2022-11-09T08:49:27.466Z,16.00
2022-11-09T08:50:30.634Z,16.00
2022-11-09T08:51:32.065Z,16.10
2022-11-09T08:52:34.079Z,16.10
2022-11-09T08:53:35.631Z,16.10
2022-11-09T08:54:37.118Z,16.10
2022-11-09T08:55:38.760Z,16.10
2022-11-09T08:56:40.195Z,16.20
2022-11-09T08:57:41.604Z,16.20
2022-11-09T08:58:42.976Z,16.20
2022-11-09T08:59:44.942Z,16.30
2022-11-09T09:00:46.341Z,16.30
2022-11-09T09:01:47.870Z,16.30
2022-11-09T09:02:49.562Z,16.30
2022-11-09T09:03:51.537Z,16.30
2022-11-09T09:04:54.355Z,16.30
2022-11-09T09:05:56.136Z,16.40
2022-11-09T09:06:57.951Z,16.40
2022-11-09T09:08:00.229Z,16.40
2022-11-09T09:09:01.601Z,16.40
2022-11-09T09:10:04.460Z,16.40
2022-11-09T09:11:06.707Z,16.50
2022-11-09T09:12:09.574Z,16.50
2022-11-09T09:13:11.409Z,16.50
2022-11-09T09:14:13.282Z,16.50
2022-11-09T09:15:14.935Z,16.60
2022-11-09T09:16:16.786Z,16.60
2022-11-09T09:17:18.229Z,16.70
2022-11-09T09:18:20.073Z,16.70
2022-11-09T09:19:22.381Z,16.70
2022-11-09T09:20:23.755Z,16.80
2022-11-09T09:21:25.196Z,16.80
2022-11-09T09:22:26.631Z,16.80
2022-11-09T09:23:27.986Z,16.90
2022-11-09T09:24:29.665Z,17.00
2022-11-09T09:25:31.187Z,17.00
2022-11-09T09:26:32.820Z,17.10
2022-11-09T09:27:35.060Z,17.10
2022-11-09T09:28:36.428Z,17.20
2022-11-09T09:29:37.855Z,17.20
2022-11-09T09:30:39.280Z,17.20
2022-11-09T09:31:41.308Z,17.30
2022-11-09T09:32:42.938Z,17.30
2022-11-09T09:33:44.412Z,17.20
2022-11-09T09:34:45.814Z,17.30
2022-11-09T09:35:47.258Z,17.30
2022-11-09T09:36:49.212Z,17.30
2022-11-09T09:37:50.616Z,17.30
2022-11-09T09:38:53.663Z,17.30
2022-11-09T09:39:55.068Z,17.30
2022-11-09T09:41:06.080Z,17.40
2022-11-09T09:42:43.672Z,17.30
2022-11-09T09:43:48.038Z,17.40
2022-11-09T09:45:00.946Z,17.40
2022-11-09T09:46:06.170Z,17.40
2022-11-09T09:47:15.400Z,17.30
2022-11-09T09:48:37.760Z,17.30
2022-11-09T09:49:47.415Z,17.30
2022-11-09T09:50:50.574Z,17.30
2022-11-09T09:51:52.011Z,17.30
2022-11-09T09:53:23.095Z,17.30
2022-11-09T09:54:31.339Z,17.30
2022-11-09T09:55:39.039Z,17.30
2022-11-09T09:56:44.265Z,17.30
2022-11-09T09:57:53.196Z,17.30
2022-11-09T09:59:27.293Z,17.30
2022-11-09T10:00:33.204Z,17.30
2022-11-09T10:01:40.373Z,17.30
2022-11-09T10:02:43.053Z,17.30
2022-11-09T10:03:44.509Z,17.30
2022-11-09T10:04:46.297Z,17.30
2022-11-09T10:06:08.555Z,17.30
2022-11-09T10:07:32.687Z,17.30
2022-11-09T10:08:55.466Z,17.30
2022-11-09T10:10:09.564Z,17.30
2022-11-09T10:11:23.289Z,17.30
2022-11-09T10:12:33.477Z,17.30
2022-11-09T10:13:42.380Z,17.30
2022-11-09T10:14:58.137Z,17.30
2022-11-09T10:16:21.466Z,17.30
2022-11-09T10:17:34.303Z,17.30
2022-11-09T10:19:12.456Z,17.30
2022-11-09T10:20:25.696Z,17.30
2022-11-09T10:21:50.181Z,17.30
2022-11-09T10:22:54.716Z,17.40
2022-11-09T10:24:12.307Z,17.30
2022-11-09T10:25:37.479Z,17.30
2022-11-09T10:26:52.473Z,17.30
2022-11-09T10:28:00.711Z,17.30
2022-11-09T10:29:32.706Z,17.30
2022-11-09T10:30:34.659Z,17.20
2022-11-09T10:31:42.785Z,17.20
2022-11-09T10:32:48.347Z,17.10
2022-11-09T10:33:55.822Z,17.20
2022-11-09T10:35:15.329Z,17.10
2022-11-09T10:36:24.332Z,17.20
2022-11-09T10:37:43.085Z,17.20
2022-11-09T10:38:49.684Z,17.20
2022-11-09T10:40:09.790Z,17.10
2022-11-09T10:41:46.786Z,17.20
2022-11-09T10:43:14.317Z,17.20
2022-11-09T10:44:34.773Z,17.10
2022-11-09T10:46:07.569Z,17.10
2022-11-09T10:47:27.425Z,17.10
2022-11-09T10:48:47.739Z,17.10
2022-11-09T10:50:38.072Z,17.10
2022-11-09T10:51:58.403Z,17.20
2022-11-09T10:53:27.320Z,17.10
2022-11-09T10:54:47.482Z,17.10
2022-11-09T10:56:20.204Z,17.10
2022-11-09T10:57:54.961Z,17.10
2022-11-09T10:59:39.211Z,17.20
2022-11-09T11:01:05.832Z,17.20
2022-11-09T11:02:26.308Z,17.10
2022-11-09T11:03:51.032Z,17.10
2022-11-09T11:05:12.673Z,17.20
2022-11-09T11:06:32.998Z,17.20
2022-11-09T11:07:53.683Z,17.20
2022-11-09T11:09:16.805Z,17.10
2022-11-09T11:10:37.232Z,17.20
2022-11-09T11:12:20.445Z,17.20
2022-11-09T11:13:41.107Z,17.20
2022-11-09T11:15:01.514Z,17.20
2022-11-09T11:16:27.580Z,17.00
2022-11-09T11:17:49.677Z,17.00
2022-11-09T11:19:48.662Z,17.10
2022-11-09T11:21:19.015Z,17.10
2022-11-09T11:22:39.519Z,17.10
2022-11-09T11:24:18.906Z,17.10
2022-11-09T11:25:53.707Z,17.10
2022-11-09T11:27:30.102Z,17.00
2022-11-09T11:28:55.853Z,17.00
2022-11-09T11:30:40.034Z,17.00
2022-11-09T11:32:00.230Z,17.00
2022-11-09T11:33:22.420Z,17.00
2022-11-09T11:34:59.816Z,17.00
2022-11-09T11:36:43.284Z,17.00
2022-11-09T11:38:14.574Z,16.90
2022-11-09T11:39:47.391Z,16.90
2022-11-09T11:41:07.231Z,16.80
2022-11-09T11:42:54.940Z,16.80
2022-11-09T11:44:50.536Z,16.80
2022-11-09T11:46:21.114Z,16.80
2022-11-09T11:48:02.687Z,16.80
2022-11-09T11:49:28.328Z,16.70
2022-11-09T11:51:12.106Z,16.70
2022-11-09T11:53:06.431Z,16.80
2022-11-09T11:55:03.128Z,16.80
2022-11-09T11:56:32.092Z,16.90
2022-11-09T11:58:12.145Z,16.80
2022-11-09T11:59:44.501Z,16.80
2022-11-09T12:01:42.152Z,16.80
2022-11-09T12:03:08.341Z,16.80
2022-11-09T12:05:07.866Z,16.80
2022-11-09T12:06:46.472Z,16.80
2022-11-09T12:08:31.537Z,16.70
2022-11-09T12:10:12.411Z,16.60
2022-11-09T12:11:35.614Z,16.60
2022-11-09T12:12:58.689Z,16.50
2022-11-09T12:14:47.197Z,16.40
2022-11-09T12:16:13.988Z,16.40
2022-11-09T12:17:53.166Z,16.40
2022-11-09T12:19:26.629Z,16.40
2022-11-09T12:21:14.409Z,16.30
2022-11-09T12:22:39.924Z,16.30
2022-11-09T12:24:16.138Z,16.30
2022-11-09T12:25:46.599Z,16.30
2022-11-09T12:27:36.827Z,16.20
2022-11-09T12:29:12.097Z,16.10
2022-11-09T12:31:08.980Z,16.10
2022-11-09T12:32:53.323Z,16.00
2022-11-09T12:34:23.615Z,15.90
2022-11-09T12:35:56.288Z,15.90
2022-11-09T12:37:24.445Z,15.80
2022-11-09T12:38:58.735Z,15.80
2022-11-09T12:40:23.505Z,15.90
2022-11-09T12:41:44.520Z,15.80
2022-11-09T12:43:18.472Z,15.70
2022-11-09T12:44:46.766Z,15.70
2022-11-09T12:46:10.264Z,15.60
2022-11-09T12:47:40.373Z,15.60
2022-11-09T12:49:04.638Z,15.50
2022-11-09T12:50:27.324Z,15.60
2022-11-09T12:51:47.792Z,15.50
2022-11-09T12:53:09.016Z,15.50
2022-11-09T12:54:29.492Z,15.40
2022-11-09T12:56:03.960Z,15.40
2022-11-09T12:57:29.854Z,15.30
2022-11-09T12:58:50.245Z,15.30
2022-11-09T13:00:46.303Z,15.20
2022-11-09T13:02:14.496Z,15.10
2022-11-09T13:03:37.678Z,15.00
2022-11-09T13:05:03.826Z,14.90
2022-11-09T13:06:27.983Z,14.90
2022-11-09T13:07:51.735Z,15.00
2022-11-09T13:09:23.725Z,14.90
2022-11-09T13:10:43.801Z,14.80
2022-11-09T13:12:27.684Z,14.70
2022-11-09T13:13:47.841Z,14.50
2022-11-09T13:15:24.126Z,14.40
2022-11-09T13:16:44.072Z,14.30
2022-11-09T13:18:47.317Z,14.30
2022-11-09T13:20:53.841Z,14.30
2022-11-09T13:22:15.863Z,14.30
2022-11-09T13:23:59.858Z,14.30
2022-11-09T13:25:44.822Z,14.30
2022-11-09T13:27:05.060Z,14.40
2022-11-09T13:28:27.861Z,14.30
2022-11-09T13:29:53.760Z,14.30
2022-11-09T13:31:55.219Z,14.30
2022-11-09T13:33:15.009Z,14.30
2022-11-09T13:34:49.649Z,14.20
2022-11-09T13:36:09.449Z,14.20
2022-11-09T13:37:49.245Z,14.20
2022-11-09T13:39:26.769Z,14.20
2022-11-09T13:40:48.530Z,14.20
2022-11-09T13:42:29.958Z,14.20
2022-11-09T13:44:27.107Z,14.20
2022-11-09T13:45:49.495Z,14.20
2022-11-09T13:47:32.725Z,14.20
2022-11-09T13:48:54.163Z,14.20
2022-11-09T13:50:19.684Z,14.30
2022-11-09T13:51:46.262Z,14.20
2022-11-09T13:53:29.601Z,14.20
2022-11-09T13:54:54.200Z,14.30
2022-11-09T13:56:40.143Z,14.30
2022-11-09T13:58:05.052Z,14.20
2022-11-09T13:59:30.140Z,14.20
2022-11-09T14:00:50.795Z,14.20
2022-11-09T14:02:22.488Z,14.20
2022-11-09T14:03:51.825Z,14.20
2022-11-09T14:05:43.765Z,14.20
2022-11-09T14:07:15.606Z,14.20
2022-11-09T14:08:40.970Z,14.20
2022-11-09T14:10:15.412Z,14.20
2022-11-09T14:11:54.406Z,14.20
2022-11-09T14:13:40.742Z,14.20
2022-11-09T14:15:25.025Z,14.20
2022-11-09T14:17:11.488Z,14.10
2022-11-09T14:18:56.583Z,14.10
2022-11-09T14:20:43.146Z,14.10
2022-11-09T14:22:03.304Z,14.10
2022-11-09T14:23:28.864Z,14.00
2022-11-09T14:24:49.910Z,14.00
2022-11-09T14:26:17.477Z,14.10
2022-11-09T14:27:46.934Z,14.10
2022-11-09T14:29:36.129Z,14.00
2022-11-09T14:30:56.928Z,14.00
2022-11-09T14:32:28.765Z,14.00
2022-11-09T14:34:01.543Z,14.00
2022-11-09T14:35:33.957Z,14.10
2022-11-09T14:36:54.908Z,14.10
2022-11-09T14:38:31.817Z,14.10
2022-11-09T14:39:54.136Z,14.10
2022-11-09T14:41:26.444Z,14.10
2022-11-09T14:42:50.173Z,14.10
2022-11-09T14:44:23.109Z,14.00
2022-11-09T14:45:54.931Z,14.00
2022-11-09T14:47:20.118Z,14.00
2022-11-09T14:48:44.846Z,14.00
2022-11-09T14:50:14.364Z,14.00
2022-11-09T14:51:38.949Z,14.00
2022-11-09T14:53:00.684Z,14.00
2022-11-09T14:54:25.733Z,14.00
2022-11-09T14:55:46.210Z,14.00
2022-11-09T14:57:06.818Z,14.00
2022-11-09T14:58:28.455Z,14.00
2022-11-09T14:59:48.956Z,13.90
2022-11-09T15:01:15.379Z,13.90